createdAt,value
2023-04-18T00:11:55.585Z,50
2023-04-18T00:26:57.379Z,90
2023-04-18T00:41:59.180Z,170
2023-04-18T00:57:00.927Z,270
2023-04-18T01:12:02.685Z,40
2023-04-18T01:27:04.540Z,20
2023-04-18T01:42:06.337Z,10
2023-04-18T01:57:08.158Z,10
2023-04-18T02:12:10.196Z,10
2023-04-18T02:27:12.004Z,0
2023-04-18T02:42:13.902Z,0
2023-04-18T02:57:15.665Z,0
2023-04-18T03:12:17.454Z,0
2023-04-18T03:27:19.172Z,0
2023-04-18T03:42:20.923Z,0
2023-04-18T03:57:22.741Z,0
2023-04-18T04:12:24.495Z,0
2023-04-18T04:27:26.335Z,0
2023-04-18T04:42:28.400Z,0
2023-04-18T04:57:30.246Z,0
2023-04-18T05:12:31.986Z,0
2023-04-18T05:27:33.727Z,0
2023-04-18T05:42:35.527Z,0
2023-04-18T05:57:37.287Z,0
2023-04-18T06:12:39.102Z,0
2023-04-18T06:27:41.125Z,0
2023-04-18T06:42:42.875Z,0
2023-04-18T06:57:44.667Z,0
2023-04-18T07:12:46.406Z,0
2023-04-18T07:27:48.195Z,0
2023-04-18T07:42:49.975Z,0
2023-04-18T07:57:51.677Z,0
2023-04-18T08:12:53.429Z,0
2023-04-18T08:27:55.207Z,0
2023-04-18T08:42:57.017Z,0
2023-04-18T08:57:58.774Z,0
2023-04-18T09:13:00.537Z,0
2023-04-18T09:28:02.458Z,0
2023-04-18T09:43:04.199Z,0
2023-04-18T09:58:05.940Z,0
2023-04-18T10:13:07.684Z,0
2023-04-18T10:28:09.462Z,0
2023-04-18T10:43:11.233Z,0
2023-04-18T10:58:12.999Z,0
2023-04-18T11:13:14.926Z,0
2023-04-18T11:28:16.690Z,0
2023-04-18T11:43:18.526Z,0
2023-04-18T11:58:20.383Z,0
2023-04-18T12:13:22.151Z,0
2023-04-18T12:28:23.885Z,0
2023-04-18T12:43:25.649Z,0
2023-04-18T12:58:27.471Z,0
2023-04-18T13:13:29.267Z,0
2023-04-18T13:28:31.084Z,0
2023-04-18T13:43:32.814Z,0
2023-04-18T13:58:34.660Z,0
2023-04-18T14:13:36.530Z,0
2023-04-18T14:28:38.297Z,10
2023-04-18T14:43:40.047Z,10
2023-04-18T14:58:41.815Z,10
2023-04-18T15:13:43.540Z,20
2023-04-18T15:28:45.356Z,30
2023-04-18T15:43:47.136Z,20
2023-04-18T15:58:48.948Z,20
2023-04-18T16:13:50.628Z,10
2023-04-18T16:28:52.387Z,20
2023-04-18T16:43:54.188Z,20
2023-04-18T16:58:55.990Z,10
2023-04-18T17:13:57.731Z,20
2023-04-18T17:28:59.518Z,20
2023-04-18T17:44:01.326Z,50
2023-04-18T17:59:03.152Z,40
2023-04-18T18:14:04.927Z,20
2023-04-18T18:29:06.743Z,30
2023-04-18T18:44:08.492Z,80
2023-04-18T18:59:10.292Z,70
2023-04-18T19:21:01.566Z,80
2023-04-18T19:36:03.325Z,40
2023-04-18T19:51:05.080Z,50
2023-04-18T20:06:06.864Z,40
2023-04-18T20:21:08.612Z,50
2023-04-18T20:36:10.385Z,50
2023-04-18T20:51:12.108Z,130
2023-04-18T21:06:13.868Z,90
2023-04-18T21:21:15.566Z,120
2023-04-18T21:36:17.311Z,170
2023-04-18T21:51:19.022Z,80
2023-04-18T22:06:20.786Z,60
2023-04-18T22:21:22.529Z,30
2023-04-18T22:36:24.234Z,30
2023-04-18T22:51:25.976Z,30
2023-04-18T23:06:27.691Z,40
2023-04-18T23:21:29.374Z,70
2023-04-18T23:36:31.056Z,240
2023-04-18T23:51:32.755Z,220
